sensor_id;sensor_type;location;lat;lon;timestamp;P1;durP1;ratioP1;P2;durP2;ratioP2
18929;SDS011;43305;52.186;5.598;2022-07-10T00:02:04;7.97;;;1.02;;
18929;SDS011;43305;52.186;5.598;2022-07-10T00:04:31;3.50;;;0.90;;
18929;SDS011;43305;52.186;5.598;2022-07-10T00:06:59;10.27;;;1.35;;
18929;SDS011;43305;52.186;5.598;2022-07-10T00:09:28;6.20;;;1.20;;
18929;SDS011;43305;52.186;5.598;2022-07-10T00:11:55;9.40;;;1.08;;
18929;SDS011;43305;52.186;5.598;2022-07-10T00:14:22;11.75;;;1.20;;
18929;SDS011;43305;52.186;5.598;2022-07-10T00:16:49;7.43;;;1.08;;
18929;SDS011;43305;52.186;5.598;2022-07-10T00:19:16;7.82;;;1.00;;
18929;SDS011;43305;52.186;5.598;2022-07-10T00:21:43;7.45;;;1.15;;
18929;SDS011;43305;52.186;5.598;2022-07-10T00:24:11;6.10;;;1.08;;
18929;SDS011;43305;52.186;5.598;2022-07-10T00:26:38;7.78;;;1.20;;
18929;SDS011;43305;52.186;5.598;2022-07-10T00:29:05;7.63;;;1.02;;
18929;SDS011;43305;52.186;5.598;2022-07-10T00:31:33;4.13;;;0.90;;
18929;SDS011;43305;52.186;5.598;2022-07-10T00:34:00;8.30;;;1.35;;
18929;SDS011;43305;52.186;5.598;2022-07-10T00:36:27;7.32;;;1.38;;
18929;SDS011;43305;52.186;5.598;2022-07-10T00:38:54;7.28;;;1.45;;
18929;SDS011;43305;52.186;5.598;2022-07-10T00:41:22;7.95;;;1.10;;
18929;SDS011;43305;52.186;5.598;2022-07-10T00:43:51;3.53;;;1.05;;
18929;SDS011;43305;52.186;5.598;2022-07-10T00:46:19;5.78;;;1.20;;
18929;SDS011;43305;52.186;5.598;2022-07-10T00:48:46;3.83;;;1.00;;
18929;SDS011;43305;52.186;5.598;2022-07-10T00:51:13;6.10;;;1.00;;
18929;SDS011;43305;52.186;5.598;2022-07-10T00:53:42;6.45;;;1.15;;
18929;SDS011;43305;52.186;5.598;2022-07-10T00:56:10;6.32;;;1.05;;
18929;SDS011;43305;52.186;5.598;2022-07-10T00:58:41;3.80;;;1.00;;
18929;SDS011;43305;52.186;5.598;2022-07-10T01:01:09;5.07;;;1.05;;
18929;SDS011;43305;52.186;5.598;2022-07-10T01:03:36;4.25;;;0.98;;
18929;SDS011;43305;52.186;5.598;2022-07-10T01:06:03;8.55;;;1.13;;
18929;SDS011;43305;52.186;5.598;2022-07-10T01:08:30;7.38;;;1.65;;
18929;SDS011;43305;52.186;5.598;2022-07-10T01:10:57;6.40;;;1.10;;
18929;SDS011;43305;52.186;5.598;2022-07-10T01:13:24;7.93;;;1.20;;
18929;SDS011;43305;52.186;5.598;2022-07-10T01:15:53;5.10;;;0.90;;
18929;SDS011;43305;52.186;5.598;2022-07-10T01:18:21;5.38;;;0.93;;
18929;SDS011;43305;52.186;5.598;2022-07-10T01:20:51;6.72;;;1.10;;
18929;SDS011;43305;52.186;5.598;2022-07-10T01:23:19;5.60;;;0.80;;
18929;SDS011;43305;52.186;5.598;2022-07-10T01:25:49;5.43;;;1.00;;
18929;SDS011;43305;52.186;5.598;2022-07-10T01:28:17;4.50;;;1.20;;
18929;SDS011;43305;52.186;5.598;2022-07-10T01:30:46;4.13;;;1.00;;
18929;SDS011;43305;52.186;5.598;2022-07-10T01:33:13;9.43;;;1.17;;
18929;SDS011;43305;52.186;5.598;2022-07-10T01:35:40;5.38;;;0.88;;
18929;SDS011;43305;52.186;5.598;2022-07-10T01:38:08;6.60;;;1.23;;
18929;SDS011;43305;52.186;5.598;2022-07-10T01:40:35;6.78;;;0.98;;
18929;SDS011;43305;52.186;5.598;2022-07-10T01:43:02;7.30;;;0.80;;
18929;SDS011;43305;52.186;5.598;2022-07-10T01:45:29;5.57;;;1.00;;
18929;SDS011;43305;52.186;5.598;2022-07-10T01:47:56;6.70;;;1.10;;
18929;SDS011;43305;52.186;5.598;2022-07-10T01:50:23;8.27;;;1.08;;
18929;SDS011;43305;52.186;5.598;2022-07-10T01:52:51;6.13;;;1.02;;
18929;SDS011;43305;52.186;5.598;2022-07-10T01:55:19;8.10;;;1.17;;
18929;SDS011;43305;52.186;5.598;2022-07-10T01:57:46;5.18;;;1.20;;
18929;SDS011;43305;52.186;5.598;2022-07-10T02:00:13;7.07;;;1.20;;
18929;SDS011;43305;52.186;5.598;2022-07-10T02:02:40;6.10;;;1.20;;
18929;SDS011;43305;52.186;5.598;2022-07-10T02:05:27;6.15;;;1.00;;
18929;SDS011;43305;52.186;5.598;2022-07-10T02:07:53;7.10;;;1.20;;
18929;SDS011;43305;52.186;5.598;2022-07-10T02:10:21;10.85;;;1.25;;
18929;SDS011;43305;52.186;5.598;2022-07-10T02:12:48;7.72;;;1.10;;
18929;SDS011;43305;52.186;5.598;2022-07-10T02:15:15;8.75;;;1.35;;
18929;SDS011;43305;52.186;5.598;2022-07-10T02:17:42;9.10;;;1.20;;
18929;SDS011;43305;52.186;5.598;2022-07-10T02:20:09;6.03;;;1.33;;
18929;SDS011;43305;52.186;5.598;2022-07-10T02:22:37;5.80;;;1.10;;
18929;SDS011;43305;52.186;5.598;2022-07-10T02:25:04;7.68;;;1.52;;
18929;SDS011;43305;52.186;5.598;2022-07-10T02:27:32;7.25;;;1.33;;
18929;SDS011;43305;52.186;5.598;2022-07-10T02:29:59;5.28;;;1.38;;
18929;SDS011;43305;52.186;5.598;2022-07-10T02:32:26;4.43;;;1.15;;
18929;SDS011;43305;52.186;5.598;2022-07-10T02:34:53;11.25;;;1.65;;
18929;SDS011;43305;52.186;5.598;2022-07-10T02:37:20;9.68;;;1.45;;
18929;SDS011;43305;52.186;5.598;2022-07-10T02:39:47;5.80;;;1.35;;
18929;SDS011;43305;52.186;5.598;2022-07-10T02:42:14;8.48;;;1.33;;
18929;SDS011;43305;52.186;5.598;2022-07-10T02:44:42;6.43;;;1.60;;
18929;SDS011;43305;52.186;5.598;2022-07-10T02:47:12;7.03;;;1.17;;
18929;SDS011;43305;52.186;5.598;2022-07-10T02:49:39;7.00;;;1.30;;
18929;SDS011;43305;52.186;5.598;2022-07-10T02:52:06;7.43;;;1.40;;
18929;SDS011;43305;52.186;5.598;2022-07-10T02:54:33;9.07;;;1.63;;
18929;SDS011;43305;52.186;5.598;2022-07-10T02:56:59;5.95;;;1.25;;
18929;SDS011;43305;52.186;5.598;2022-07-10T02:59:26;7.13;;;1.23;;
18929;SDS011;43305;52.186;5.598;2022-07-10T03:01:56;7.05;;;1.15;;
18929;SDS011;43305;52.186;5.598;2022-07-10T03:04:22;7.50;;;1.20;;
18929;SDS011;43305;52.186;5.598;2022-07-10T03:06:49;6.60;;;1.20;;
18929;SDS011;43305;52.186;5.598;2022-07-10T03:09:16;9.25;;;1.30;;
18929;SDS011;43305;52.186;5.598;2022-07-10T03:11:43;6.95;;;1.55;;
18929;SDS011;43305;52.186;5.598;2022-07-10T03:14:10;12.60;;;1.33;;
18929;SDS011;43305;52.186;5.598;2022-07-10T03:16:37;6.85;;;1.50;;
18929;SDS011;43305;52.186;5.598;2022-07-10T03:19:05;12.60;;;1.60;;
18929;SDS011;43305;52.186;5.598;2022-07-10T03:21:32;7.38;;;1.20;;
18929;SDS011;43305;52.186;5.598;2022-07-10T03:23:59;6.60;;;1.13;;
18929;SDS011;43305;52.186;5.598;2022-07-10T03:26:26;11.88;;;1.75;;
18929;SDS011;43305;52.186;5.598;2022-07-10T03:28:54;7.25;;;1.65;;
18929;SDS011;43305;52.186;5.598;2022-07-10T03:31:21;7.03;;;1.00;;
18929;SDS011;43305;52.186;5.598;2022-07-10T03:33:48;10.27;;;1.60;;
18929;SDS011;43305;52.186;5.598;2022-07-10T03:36:19;5.47;;;1.15;;
18929;SDS011;43305;52.186;5.598;2022-07-10T03:38:46;11.77;;;1.80;;
18929;SDS011;43305;52.186;5.598;2022-07-10T03:41:12;5.10;;;1.10;;
18929;SDS011;43305;52.186;5.598;2022-07-10T03:43:39;6.15;;;1.42;;
18929;SDS011;43305;52.186;5.598;2022-07-10T03:46:06;6.18;;;1.50;;
18929;SDS011;43305;52.186;5.598;2022-07-10T03:48:33;5.57;;;1.27;;
18929;SDS011;43305;52.186;5.598;2022-07-10T03:51:00;9.27;;;1.52;;
18929;SDS011;43305;52.186;5.598;2022-07-10T03:53:29;6.35;;;1.20;;
18929;SDS011;43305;52.186;5.598;2022-07-10T03:55:56;6.05;;;1.20;;
18929;SDS011;43305;52.186;5.598;2022-07-10T03:58:22;6.35;;;1.38;;
18929;SDS011;43305;52.186;5.598;2022-07-10T04:00:48;8.73;;;1.23;;
18929;SDS011;43305;52.186;5.598;2022-07-10T04:03:15;6.18;;;1.10;;
18929;SDS011;43305;52.186;5.598;2022-07-10T04:05:42;9.25;;;1.30;;
18929;SDS011;43305;52.186;5.598;2022-07-10T04:08:09;9.95;;;1.40;;
18929;SDS011;43305;52.186;5.598;2022-07-10T04:10:37;10.00;;;1.58;;
18929;SDS011;43305;52.186;5.598;2022-07-10T04:13:04;12.38;;;1.20;;
18929;SDS011;43305;52.186;5.598;2022-07-10T04:15:31;5.97;;;1.08;;
18929;SDS011;43305;52.186;5.598;2022-07-10T04:18:05;5.78;;;1.30;;
18929;SDS011;43305;52.186;5.598;2022-07-10T04:20:32;8.88;;;1.30;;
18929;SDS011;43305;52.186;5.598;2022-07-10T04:23:01;7.47;;;1.05;;
18929;SDS011;43305;52.186;5.598;2022-07-10T04:25:27;7.93;;;1.25;;
18929;SDS011;43305;52.186;5.598;2022-07-10T04:28:02;6.40;;;1.48;;
18929;SDS011;43305;52.186;5.598;2022-07-10T04:30:31;7.65;;;1.17;;
18929;SDS011;43305;52.186;5.598;2022-07-10T04:32:58;6.95;;;1.20;;
18929;SDS011;43305;52.186;5.598;2022-07-10T04:35:25;8.73;;;1.30;;
18929;SDS011;43305;52.186;5.598;2022-07-10T04:37:51;7.03;;;1.20;;
18929;SDS011;43305;52.186;5.598;2022-07-10T04:40:22;6.90;;;1.30;;
18929;SDS011;43305;52.186;5.598;2022-07-10T04:42:49;11.63;;;1.48;;
18929;SDS011;43305;52.186;5.598;2022-07-10T04:45:22;9.02;;;1.58;;
18929;SDS011;43305;52.186;5.598;2022-07-10T04:47:52;9.98;;;1.70;;
18929;SDS011;43305;52.186;5.598;2022-07-10T04:50:19;10.80;;;1.20;;
18929;SDS011;43305;52.186;5.598;2022-07-10T04:52:45;12.57;;;1.48;;
18929;SDS011;43305;52.186;5.598;2022-07-10T04:55:12;10.77;;;1.67;;
18929;SDS011;43305;52.186;5.598;2022-07-10T04:57:39;8.65;;;1.42;;
18929;SDS011;43305;52.186;5.598;2022-07-10T05:00:09;7.80;;;1.33;;
18929;SDS011;43305;52.186;5.598;2022-07-10T05:02:44;8.80;;;1.40;;
18929;SDS011;43305;52.186;5.598;2022-07-10T05:05:14;8.05;;;1.45;;
18929;SDS011;43305;52.186;5.598;2022-07-10T05:07:40;9.77;;;1.60;;
18929;SDS011;43305;52.186;5.598;2022-07-10T05:10:16;9.65;;;1.42;;
18929;SDS011;43305;52.186;5.598;2022-07-10T05:12:45;10.38;;;1.27;;
18929;SDS011;43305;52.186;5.598;2022-07-10T05:15:12;6.22;;;1.40;;
18929;SDS011;43305;52.186;5.598;2022-07-10T05:17:38;7.25;;;1.70;;
18929;SDS011;43305;52.186;5.598;2022-07-10T05:20:07;10.05;;;1.80;;
18929;SDS011;43305;52.186;5.598;2022-07-10T05:22:35;9.32;;;1.40;;
18929;SDS011;43305;52.186;5.598;2022-07-10T05:25:02;10.95;;;1.60;;
18929;SDS011;43305;52.186;5.598;2022-07-10T05:27:29;6.68;;;1.45;;
18929;SDS011;43305;52.186;5.598;2022-07-10T05:29:56;8.23;;;1.60;;
18929;SDS011;43305;52.186;5.598;2022-07-10T05:32:23;7.30;;;1.50;;
18929;SDS011;43305;52.186;5.598;2022-07-10T05:34:50;10.63;;;1.75;;
18929;SDS011;43305;52.186;5.598;2022-07-10T05:37:19;10.88;;;1.40;;
18929;SDS011;43305;52.186;5.598;2022-07-10T05:39:45;12.35;;;2.00;;
18929;SDS011;43305;52.186;5.598;2022-07-10T05:42:12;6.65;;;1.50;;
18929;SDS011;43305;52.186;5.598;2022-07-10T05:44:39;12.15;;;1.75;;
18929;SDS011;43305;52.186;5.598;2022-07-10T05:47:06;11.77;;;2.22;;
18929;SDS011;43305;52.186;5.598;2022-07-10T05:49:33;9.27;;;2.00;;
18929;SDS011;43305;52.186;5.598;2022-07-10T05:51:59;10.65;;;1.77;;
18929;SDS011;43305;52.186;5.598;2022-07-10T05:54:28;9.75;;;1.88;;
18929;SDS011;43305;52.186;5.598;2022-07-10T05:56:55;8.43;;;1.75;;
18929;SDS011;43305;52.186;5.598;2022-07-10T05:59:22;10.98;;;1.70;;
18929;SDS011;43305;52.186;5.598;2022-07-10T06:01:49;6.65;;;1.38;;
18929;SDS011;43305;52.186;5.598;2022-07-10T06:04:15;9.65;;;1.80;;
18929;SDS011;43305;52.186;5.598;2022-07-10T06:06:43;10.25;;;1.55;;
18929;SDS011;43305;52.186;5.598;2022-07-10T06:09:11;7.78;;;1.60;;
18929;SDS011;43305;52.186;5.598;2022-07-10T06:11:40;7.45;;;1.52;;
18929;SDS011;43305;52.186;5.598;2022-07-10T06:14:09;9.15;;;1.65;;
18929;SDS011;43305;52.186;5.598;2022-07-10T06:16:36;12.85;;;2.20;;
18929;SDS011;43305;52.186;5.598;2022-07-10T06:19:02;9.55;;;1.77;;
18929;SDS011;43305;52.186;5.598;2022-07-10T06:21:29;7.13;;;1.63;;
18929;SDS011;43305;52.186;5.598;2022-07-10T06:23:56;8.45;;;1.90;;
18929;SDS011;43305;52.186;5.598;2022-07-10T06:26:24;10.32;;;1.52;;
18929;SDS011;43305;52.186;5.598;2022-07-10T06:28:52;9.23;;;1.67;;
18929;SDS011;43305;52.186;5.598;2022-07-10T06:31:19;7.28;;;1.55;;
18929;SDS011;43305;52.186;5.598;2022-07-10T06:33:46;10.00;;;1.75;;
18929;SDS011;43305;52.186;5.598;2022-07-10T06:36:13;7.47;;;1.50;;
18929;SDS011;43305;52.186;5.598;2022-07-10T06:38:39;8.43;;;1.70;;
18929;SDS011;43305;52.186;5.598;2022-07-10T06:41:06;6.82;;;1.67;;
18929;SDS011;43305;52.186;5.598;2022-07-10T06:43:33;9.13;;;1.60;;
18929;SDS011;43305;52.186;5.598;2022-07-10T06:46:02;10.57;;;1.70;;
18929;SDS011;43305;52.186;5.598;2022-07-10T06:48:29;8.27;;;1.60;;
18929;SDS011;43305;52.186;5.598;2022-07-10T06:50:55;12.32;;;1.73;;
18929;SDS011;43305;52.186;5.598;2022-07-10T06:53:22;8.15;;;1.60;;
18929;SDS011;43305;52.186;5.598;2022-07-10T06:55:51;11.85;;;1.75;;
18929;SDS011;43305;52.186;5.598;2022-07-10T06:58:18;9.13;;;1.63;;
18929;SDS011;43305;52.186;5.598;2022-07-10T07:00:45;10.15;;;1.90;;
18929;SDS011;43305;52.186;5.598;2022-07-10T07:03:13;8.38;;;1.55;;
18929;SDS011;43305;52.186;5.598;2022-07-10T07:05:43;11.77;;;1.70;;
18929;SDS011;43305;52.186;5.598;2022-07-10T07:08:09;6.40;;;1.42;;
18929;SDS011;43305;52.186;5.598;2022-07-10T07:10:38;9.20;;;1.65;;
18929;SDS011;43305;52.186;5.598;2022-07-10T07:13:05;9.95;;;1.48;;
18929;SDS011;43305;52.186;5.598;2022-07-10T07:15:34;7.45;;;1.38;;
18929;SDS011;43305;52.186;5.598;2022-07-10T07:18:04;5.78;;;1.63;;
18929;SDS011;43305;52.186;5.598;2022-07-10T07:20:39;10.18;;;1.55;;
18929;SDS011;43305;52.186;5.598;2022-07-10T07:23:19;7.22;;;1.60;;
18929;SDS011;43305;52.186;5.598;2022-07-10T07:25:47;12.68;;;1.70;;
18929;SDS011;43305;52.186;5.598;2022-07-10T07:28:14;8.70;;;1.92;;
18929;SDS011;43305;52.186;5.598;2022-07-10T07:30:42;11.18;;;1.60;;
18929;SDS011;43305;52.186;5.598;2022-07-10T07:33:10;12.68;;;1.67;;
18929;SDS011;43305;52.186;5.598;2022-07-10T07:35:37;7.30;;;1.25;;
18929;SDS011;43305;52.186;5.598;2022-07-10T07:38:05;7.72;;;1.60;;
18929;SDS011;43305;52.186;5.598;2022-07-10T07:40:32;6.28;;;1.35;;
18929;SDS011;43305;52.186;5.598;2022-07-10T07:42:59;12.30;;;1.52;;
18929;SDS011;43305;52.186;5.598;2022-07-10T07:45:26;6.28;;;1.30;;
18929;SDS011;43305;52.186;5.598;2022-07-10T07:48:12;6.32;;;1.30;;
18929;SDS011;43305;52.186;5.598;2022-07-10T07:50:40;8.75;;;1.50;;
18929;SDS011;43305;52.186;5.598;2022-07-10T07:53:08;7.95;;;1.67;;
18929;SDS011;43305;52.186;5.598;2022-07-10T07:55:34;7.75;;;1.40;;
18929;SDS011;43305;52.186;5.598;2022-07-10T07:58:02;5.68;;;1.10;;
18929;SDS011;43305;52.186;5.598;2022-07-10T08:00:30;7.15;;;1.27;;
18929;SDS011;43305;52.186;5.598;2022-07-10T08:02:57;4.40;;;1.05;;
18929;SDS011;43305;52.186;5.598;2022-07-10T08:05:28;9.18;;;1.27;;
18929;SDS011;43305;52.186;5.598;2022-07-10T08:07:57;6.50;;;1.27;;
18929;SDS011;43305;52.186;5.598;2022-07-10T08:10:29;6.15;;;1.30;;
18929;SDS011;43305;52.186;5.598;2022-07-10T08:12:56;8.18;;;1.52;;
18929;SDS011;43305;52.186;5.598;2022-07-10T08:15:23;6.82;;;1.20;;
18929;SDS011;43305;52.186;5.598;2022-07-10T08:17:51;4.82;;;1.40;;
18929;SDS011;43305;52.186;5.598;2022-07-10T08:20:19;8.45;;;1.40;;
18929;SDS011;43305;52.186;5.598;2022-07-10T08:22:46;7.53;;;1.10;;
18929;SDS011;43305;52.186;5.598;2022-07-10T08:25:15;7.28;;;1.27;;
18929;SDS011;43305;52.186;5.598;2022-07-10T08:27:42;5.20;;;1.50;;
18929;SDS011;43305;52.186;5.598;2022-07-10T08:30:09;4.45;;;1.30;;
18929;SDS011;43305;52.186;5.598;2022-07-10T08:32:36;5.50;;;1.40;;
18929;SDS011;43305;52.186;5.598;2022-07-10T08:35:05;5.25;;;1.20;;
18929;SDS011;43305;52.186;5.598;2022-07-10T08:37:36;5.05;;;1.30;;
18929;SDS011;43305;52.186;5.598;2022-07-10T08:40:04;6.82;;;1.30;;
18929;SDS011;43305;52.186;5.598;2022-07-10T08:42:33;6.03;;;1.15;;
18929;SDS011;43305;52.186;5.598;2022-07-10T08:45:00;6.30;;;1.23;;
18929;SDS011;43305;52.186;5.598;2022-07-10T08:47:27;3.53;;;1.00;;
18929;SDS011;43305;52.186;5.598;2022-07-10T08:49:56;4.43;;;1.20;;
18929;SDS011;43305;52.186;5.598;2022-07-10T08:52:25;8.07;;;1.33;;
18929;SDS011;43305;52.186;5.598;2022-07-10T08:57:41;6.00;;;1.35;;
18929;SDS011;43305;52.186;5.598;2022-07-10T09:01:27;6.07;;;1.38;;
18929;SDS011;43305;52.186;5.598;2022-07-10T09:03:27;5.80;;;1.40;;
18929;SDS011;43305;52.186;5.598;2022-07-10T09:05:56;7.20;;;1.30;;
18929;SDS011;43305;52.186;5.598;2022-07-10T09:13:59;5.05;;;1.33;;
18929;SDS011;43305;52.186;5.598;2022-07-10T09:23:14;6.10;;;1.20;;
18929;SDS011;43305;52.186;5.598;2022-07-10T09:28:35;3.38;;;1.20;;
18929;SDS011;43305;52.186;5.598;2022-07-10T09:31:03;4.40;;;1.00;;
18929;SDS011;43305;52.186;5.598;2022-07-10T09:34:06;4.65;;;1.40;;
18929;SDS011;43305;52.186;5.598;2022-07-10T09:36:33;7.78;;;1.33;;
18929;SDS011;43305;52.186;5.598;2022-07-10T09:39:16;5.13;;;1.10;;
18929;SDS011;43305;52.186;5.598;2022-07-10T09:41:56;4.97;;;1.02;;
18929;SDS011;43305;52.186;5.598;2022-07-10T09:44:35;5.53;;;1.00;;
18929;SDS011;43305;52.186;5.598;2022-07-10T09:56:01;4.32;;;1.20;;
18929;SDS011;43305;52.186;5.598;2022-07-10T09:58:42;4.47;;;1.00;;
18929;SDS011;43305;52.186;5.598;2022-07-10T10:01:15;2.97;;;0.90;;
18929;SDS011;43305;52.186;5.598;2022-07-10T10:03:45;5.80;;;1.20;;
18929;SDS011;43305;52.186;5.598;2022-07-10T10:06:14;4.50;;;1.00;;
18929;SDS011;43305;52.186;5.598;2022-07-10T10:08:48;3.78;;;1.20;;
18929;SDS011;43305;52.186;5.598;2022-07-10T10:11:40;5.15;;;1.10;;
18929;SDS011;43305;52.186;5.598;2022-07-10T10:14:10;5.35;;;1.20;;
18929;SDS011;43305;52.186;5.598;2022-07-10T10:16:48;5.45;;;1.27;;
18929;SDS011;43305;52.186;5.598;2022-07-10T10:19:20;2.75;;;1.20;;
18929;SDS011;43305;52.186;5.598;2022-07-10T10:22:09;3.40;;;1.10;;
18929;SDS011;43305;52.186;5.598;2022-07-10T10:24:42;4.13;;;1.05;;
18929;SDS011;43305;52.186;5.598;2022-07-10T10:27:11;4.80;;;1.42;;
18929;SDS011;43305;52.186;5.598;2022-07-10T10:29:38;4.95;;;1.50;;
18929;SDS011;43305;52.186;5.598;2022-07-10T10:32:07;5.22;;;1.05;;
18929;SDS011;43305;52.186;5.598;2022-07-10T10:34:37;3.42;;;1.20;;
18929;SDS011;43305;52.186;5.598;2022-07-10T10:37:06;3.13;;;1.10;;
18929;SDS011;43305;52.186;5.598;2022-07-10T10:39:56;5.00;;;1.20;;
18929;SDS011;43305;52.186;5.598;2022-07-10T10:48:00;5.47;;;1.27;;
18929;SDS011;43305;52.186;5.598;2022-07-10T10:53:12;5.10;;;1.23;;
18929;SDS011;43305;52.186;5.598;2022-07-10T10:55:44;4.15;;;1.20;;
18929;SDS011;43305;52.186;5.598;2022-07-10T10:58:46;4.68;;;1.30;;
18929;SDS011;43305;52.186;5.598;2022-07-10T11:01:23;5.45;;;1.33;;
18929;SDS011;43305;52.186;5.598;2022-07-10T11:06:48;4.90;;;1.38;;
18929;SDS011;43305;52.186;5.598;2022-07-10T11:09:24;3.13;;;1.05;;
18929;SDS011;43305;52.186;5.598;2022-07-10T11:11:58;2.78;;;0.85;;
18929;SDS011;43305;52.186;5.598;2022-07-10T11:14:27;4.28;;;1.23;;
18929;SDS011;43305;52.186;5.598;2022-07-10T11:16:55;5.70;;;1.05;;
18929;SDS011;43305;52.186;5.598;2022-07-10T11:19:23;4.55;;;1.13;;
18929;SDS011;43305;52.186;5.598;2022-07-10T11:21:54;2.55;;;1.10;;
18929;SDS011;43305;52.186;5.598;2022-07-10T11:24:33;4.55;;;1.05;;
18929;SDS011;43305;52.186;5.598;2022-07-10T11:27:14;2.45;;;1.00;;
18929;SDS011;43305;52.186;5.598;2022-07-10T11:29:56;4.22;;;1.20;;
18929;SDS011;43305;52.186;5.598;2022-07-10T11:32:24;5.90;;;1.10;;
18929;SDS011;43305;52.186;5.598;2022-07-10T11:34:51;4.15;;;1.30;;
18929;SDS011;43305;52.186;5.598;2022-07-10T11:37:18;2.53;;;1.23;;
18929;SDS011;43305;52.186;5.598;2022-07-10T11:39:45;3.97;;;1.10;;
18929;SDS011;43305;52.186;5.598;2022-07-10T11:42:13;6.35;;;1.02;;
18929;SDS011;43305;52.186;5.598;2022-07-10T11:44:40;3.40;;;1.25;;
18929;SDS011;43305;52.186;5.598;2022-07-10T11:47:07;3.00;;;1.02;;
18929;SDS011;43305;52.186;5.598;2022-07-10T11:49:33;5.25;;;1.20;;
18929;SDS011;43305;52.186;5.598;2022-07-10T11:52:09;7.28;;;1.27;;
18929;SDS011;43305;52.186;5.598;2022-07-10T11:54:36;2.47;;;0.90;;
18929;SDS011;43305;52.186;5.598;2022-07-10T11:57:06;3.85;;;0.82;;
18929;SDS011;43305;52.186;5.598;2022-07-10T11:59:37;3.80;;;0.90;;
18929;SDS011;43305;52.186;5.598;2022-07-10T12:02:04;3.53;;;0.90;;
18929;SDS011;43305;52.186;5.598;2022-07-10T12:04:31;2.60;;;0.80;;
18929;SDS011;43305;52.186;5.598;2022-07-10T12:07:02;3.92;;;1.02;;
18929;SDS011;43305;52.186;5.598;2022-07-10T12:09:30;2.42;;;0.90;;
18929;SDS011;43305;52.186;5.598;2022-07-10T12:12:02;2.20;;;0.80;;
18929;SDS011;43305;52.186;5.598;2022-07-10T12:14:30;3.95;;;1.05;;
18929;SDS011;43305;52.186;5.598;2022-07-10T12:16:59;3.13;;;1.20;;
18929;SDS011;43305;52.186;5.598;2022-07-10T12:19:27;4.13;;;1.02;;
18929;SDS011;43305;52.186;5.598;2022-07-10T12:21:58;2.85;;;1.00;;
18929;SDS011;43305;52.186;5.598;2022-07-10T12:24:28;3.03;;;1.10;;
18929;SDS011;43305;52.186;5.598;2022-07-10T12:26:55;4.60;;;0.90;;
18929;SDS011;43305;52.186;5.598;2022-07-10T12:29:23;3.20;;;1.00;;
18929;SDS011;43305;52.186;5.598;2022-07-10T12:31:52;3.78;;;1.20;;
18929;SDS011;43305;52.186;5.598;2022-07-10T12:34:33;6.18;;;1.13;;
18929;SDS011;43305;52.186;5.598;2022-07-10T12:37:06;2.35;;;1.10;;
18929;SDS011;43305;52.186;5.598;2022-07-10T12:39:35;4.45;;;1.15;;
18929;SDS011;43305;52.186;5.598;2022-07-10T12:42:04;2.50;;;0.98;;
18929;SDS011;43305;52.186;5.598;2022-07-10T12:44:34;5.65;;;1.00;;
18929;SDS011;43305;52.186;5.598;2022-07-10T12:47:03;2.15;;;1.05;;
18929;SDS011;43305;52.186;5.598;2022-07-10T12:49:48;2.88;;;1.15;;
18929;SDS011;43305;52.186;5.598;2022-07-10T12:52:19;5.90;;;1.27;;
18929;SDS011;43305;52.186;5.598;2022-07-10T12:55:04;3.00;;;1.00;;
18929;SDS011;43305;52.186;5.598;2022-07-10T12:57:31;3.22;;;1.00;;
18929;SDS011;43305;52.186;5.598;2022-07-10T13:00:02;3.38;;;0.95;;
18929;SDS011;43305;52.186;5.598;2022-07-10T13:02:29;2.70;;;0.90;;
18929;SDS011;43305;52.186;5.598;2022-07-10T13:04:57;2.70;;;1.00;;
18929;SDS011;43305;52.186;5.598;2022-07-10T13:07:28;3.75;;;1.05;;
18929;SDS011;43305;52.186;5.598;2022-07-10T13:10:00;3.97;;;1.17;;
18929;SDS011;43305;52.186;5.598;2022-07-10T13:12:28;3.42;;;1.30;;
18929;SDS011;43305;52.186;5.598;2022-07-10T13:15:02;4.15;;;1.10;;
18929;SDS011;43305;52.186;5.598;2022-07-10T13:17:31;3.75;;;1.00;;
18929;SDS011;43305;52.186;5.598;2022-07-10T13:19:59;4.28;;;1.13;;
18929;SDS011;43305;52.186;5.598;2022-07-10T13:22:26;4.15;;;1.05;;
18929;SDS011;43305;52.186;5.598;2022-07-10T13:24:53;3.17;;;1.20;;
18929;SDS011;43305;52.186;5.598;2022-07-10T13:27:20;2.63;;;1.05;;
18929;SDS011;43305;52.186;5.598;2022-07-10T13:29:48;4.28;;;1.05;;
18929;SDS011;43305;52.186;5.598;2022-07-10T13:32:15;3.00;;;1.17;;
18929;SDS011;43305;52.186;5.598;2022-07-10T13:34:42;2.92;;;1.00;;
18929;SDS011;43305;52.186;5.598;2022-07-10T13:37:10;3.53;;;1.38;;
18929;SDS011;43305;52.186;5.598;2022-07-10T13:39:38;3.70;;;1.10;;
18929;SDS011;43305;52.186;5.598;2022-07-10T13:42:05;3.03;;;1.05;;
18929;SDS011;43305;52.186;5.598;2022-07-10T13:44:32;4.47;;;1.30;;
18929;SDS011;43305;52.186;5.598;2022-07-10T13:46:59;5.05;;;1.17;;
18929;SDS011;43305;52.186;5.598;2022-07-10T13:49:25;5.90;;;1.08;;
18929;SDS011;43305;52.186;5.598;2022-07-10T13:51:52;6.15;;;1.30;;
18929;SDS011;43305;52.186;5.598;2022-07-10T13:54:26;3.28;;;1.10;;
18929;SDS011;43305;52.186;5.598;2022-07-10T13:56:54;4.43;;;1.20;;
18929;SDS011;43305;52.186;5.598;2022-07-10T13:59:20;4.85;;;1.33;;
18929;SDS011;43305;52.186;5.598;2022-07-10T14:01:48;4.35;;;1.42;;
18929;SDS011;43305;52.186;5.598;2022-07-10T14:04:15;4.82;;;1.30;;
18929;SDS011;43305;52.186;5.598;2022-07-10T14:06:41;3.20;;;1.10;;
18929;SDS011;43305;52.186;5.598;2022-07-10T14:09:11;3.90;;;1.33;;
18929;SDS011;43305;52.186;5.598;2022-07-10T14:11:39;4.38;;;1.40;;
18929;SDS011;43305;52.186;5.598;2022-07-10T14:14:12;5.88;;;1.23;;
18929;SDS011;43305;52.186;5.598;2022-07-10T14:16:38;2.40;;;1.10;;
18929;SDS011;43305;52.186;5.598;2022-07-10T14:19:07;7.20;;;1.58;;
18929;SDS011;43305;52.186;5.598;2022-07-10T14:21:37;3.72;;;1.13;;
18929;SDS011;43305;52.186;5.598;2022-07-10T14:24:17;4.80;;;1.30;;
18929;SDS011;43305;52.186;5.598;2022-07-10T14:26:46;2.85;;;1.10;;
18929;SDS011;43305;52.186;5.598;2022-07-10T14:29:12;4.28;;;1.40;;
18929;SDS011;43305;52.186;5.598;2022-07-10T14:31:39;3.30;;;1.10;;
18929;SDS011;43305;52.186;5.598;2022-07-10T14:34:08;4.28;;;1.13;;
18929;SDS011;43305;52.186;5.598;2022-07-10T14:36:35;3.05;;;1.10;;
18929;SDS011;43305;52.186;5.598;2022-07-10T14:39:02;4.20;;;1.38;;
18929;SDS011;43305;52.186;5.598;2022-07-10T14:41:32;4.13;;;1.20;;
18929;SDS011;43305;52.186;5.598;2022-07-10T14:44:03;4.20;;;1.30;;
18929;SDS011;43305;52.186;5.598;2022-07-10T14:46:33;4.82;;;1.17;;
18929;SDS011;43305;52.186;5.598;2022-07-10T14:49:02;3.85;;;1.30;;
18929;SDS011;43305;52.186;5.598;2022-07-10T14:51:29;4.97;;;1.35;;
18929;SDS011;43305;52.186;5.598;2022-07-10T14:53:59;6.45;;;1.30;;
18929;SDS011;43305;52.186;5.598;2022-07-10T14:56:26;3.10;;;1.50;;
18929;SDS011;43305;52.186;5.598;2022-07-10T14:58:59;3.15;;;1.20;;
18929;SDS011;43305;52.186;5.598;2022-07-10T15:01:30;3.58;;;1.33;;
18929;SDS011;43305;52.186;5.598;2022-07-10T15:04:01;4.38;;;1.30;;
18929;SDS011;43305;52.186;5.598;2022-07-10T15:06:29;2.40;;;1.20;;
18929;SDS011;43305;52.186;5.598;2022-07-10T15:08:58;4.38;;;1.42;;
18929;SDS011;43305;52.186;5.598;2022-07-10T15:16:54;5.85;;;1.50;;
18929;SDS011;43305;52.186;5.598;2022-07-10T15:19:21;4.53;;;1.38;;
18929;SDS011;43305;52.186;5.598;2022-07-10T15:22:00;3.47;;;1.30;;
18929;SDS011;43305;52.186;5.598;2022-07-10T15:24:36;4.40;;;1.73;;
18929;SDS011;43305;52.186;5.598;2022-07-10T15:27:04;3.42;;;1.40;;
18929;SDS011;43305;52.186;5.598;2022-07-10T15:29:31;5.43;;;1.40;;
18929;SDS011;43305;52.186;5.598;2022-07-10T15:32:05;3.72;;;1.50;;
18929;SDS011;43305;52.186;5.598;2022-07-10T15:34:32;3.65;;;1.50;;
18929;SDS011;43305;52.186;5.598;2022-07-10T15:37:03;4.50;;;1.55;;
18929;SDS011;43305;52.186;5.598;2022-07-10T15:39:32;5.97;;;1.52;;
18929;SDS011;43305;52.186;5.598;2022-07-10T15:42:06;6.93;;;1.80;;